Flight Track Log - Related Links

Times and Time Zones

All times are in EDT time to prevent confusion due to time zone crossing. See the SWA535 flight status page for this flight to view local times or setup timezone preferences in your user account.

Time Position Orientation Groundspeed Altitude Reporting Facility
EDT Latitude Longitude Course Direction KTS MPH feet Rate Location/Type
Thu 09:13:04 AM 33.6500 -84.3833 73° East 170 196 2,200  Level Atlanta TRACON
Thu 09:14:04 AM 33.6667 -84.3167 23° Northeast 261 300 4,100 2,826 Climbing Atlanta TRACON
Thu 09:15:05 AM 33.7333 -84.2833 342° North 283 326 7,900 3,200 Climbing Atlanta TRACON
Thu 09:16:04 AM 33.8167 -84.3167 269° West 321 369 10,500 2,099 Climbing Atlanta TRACON
Thu 09:18:28 AM 33.8117 -84.6139 269° West 378 435 15,000 2,295 Climbing Atlanta Center
Thu 09:20:28 AM 33.8083 -84.8614 264° West 386 444 20,600 2,700 Climbing Atlanta Center
Thu 09:21:28 AM 33.7969 -84.9886 261° West 399 459 23,100 2,350 Climbing Atlanta Center
Thu 09:22:28 AM 33.7792 -85.1233 266° West 405 466 25,300 2,033 Climbing Atlanta Center
Thu 09:23:29 AM 33.7717 -85.2533 282° West 405 466 27,200 1,800 Climbing Atlanta Center
Thu 09:24:28 AM 33.7953 -85.3886 281° West 405 466 28,900 1,500 Climbing Atlanta Center
Thu 09:25:29 AM 33.8186 -85.5314 283° West 424 488 30,200 1,339 Climbing Atlanta Center
Thu 09:26:29 AM 33.8461 -85.6697 291° West 432 497 31,600 1,500 Climbing Atlanta Center
Thu 09:27:29 AM 33.8842 -85.7903 290° West 432 497 33,200 1,563 Climbing Atlanta Center
Thu 09:28:28 AM 33.9239 -85.9214 292° West 426 490 34,700 1,664 Climbing Atlanta Center
Thu 09:29:28 AM 33.9717 -86.0628 289° West 426 490 36,500 1,438 Climbing Atlanta Center
Thu 09:30:29 AM 34.0092 -86.1939 288° West 426 490 37,600 750 Climbing Atlanta Center
Thu 09:31:28 AM 34.0444 -86.3253 289° West 421 484 38,000 202 Climbing Atlanta Center
Thu 09:32:28 AM 34.0814 -86.4567 289° West 421 484 38,000  Level Atlanta Center
Thu 09:33:28 AM 34.1206 -86.5906 288° West 426 490 38,000  Level Atlanta Center
Thu 09:34:53 AM 34.1733 -86.7822 287° West 418 481 38,000  Level Memphis Center
Thu 09:35:53 AM 34.2061 -86.9089 289° West 428 493 38,000  Level Memphis Center
Thu 09:36:53 AM 34.2453 -87.0456 288° West 437 503 38,000  Level Memphis Center
Thu 09:37:53 AM 34.2822 -87.1797 288° West 430 495 38,000  Level Memphis Center
Thu 09:38:53 AM 34.3167 -87.3069 289° West 418 481 38,000  Level Memphis Center
Thu 09:39:53 AM 34.3578 -87.4536 291° West 418 481 38,000  Level Memphis Center
Thu 09:40:53 AM 34.4006 -87.5908 286° West 418 481 38,000  Level Memphis Center
Thu 09:41:53 AM 34.4328 -87.7283 290° West 425 489 38,000  Level Memphis Center
Thu 09:42:53 AM 34.4731 -87.8656 288° West 430 495 38,000  Level Memphis Center
Thu 09:43:53 AM 34.5092 -88.0031 287° West 430 495 38,000  Level Memphis Center
Thu 09:44:53 AM 34.5431 -88.1408 287° West 430 495 38,000  Level Memphis Center
Thu 09:45:53 AM 34.5744 -88.2661 288° West 444 511 38,000  Level Memphis Center
Thu 09:46:53 AM 34.6122 -88.4039 288° West 433 498 38,000  Level Memphis Center
Thu 09:47:53 AM 34.6497 -88.5469 288° West 411 473 38,000  Level Memphis Center
Thu 09:48:53 AM 34.6850 -88.6825 287° West 416 479 38,000  Level Memphis Center
Thu 09:49:53 AM 34.7158 -88.8033 288° West 416 479 38,000  Level Memphis Center
Thu 09:50:53 AM 34.7531 -88.9392 287° West 421 484 38,000  Level Memphis Center
Thu 09:51:53 AM 34.7858 -89.0700 288° West 416 479 38,000  Level Memphis Center
Thu 09:52:53 AM 34.8206 -89.2036 286° West 421 484 38,000  Level Memphis Center
Thu 09:53:53 AM 34.8528 -89.3372 289° West 421 484 38,000  Level Memphis Center
Thu 09:54:53 AM 34.8894 -89.4683 288° West 414 476 38,000  Level Memphis Center
Thu 09:55:53 AM 34.9258 -89.6022 283° West 414 476 38,000  Level Memphis Center
Thu 09:56:53 AM 34.9536 -89.7542 292° West 421 484 38,000  Level Memphis Center
Thu 09:57:53 AM 34.9961 -89.8856 283° West 435 501 38,000  Level Memphis Center
Thu 09:58:53 AM 35.0214 -90.0197 278° West 430 495 38,000  Level Memphis Center
Thu 09:59:53 AM 35.0364 -90.1592 277° West 421 484 38,000  Level Memphis Center
Thu 10:00:53 AM 35.0511 -90.3039 277° West 426 490 38,000  Level Memphis Center
Thu 10:01:53 AM 35.0658 -90.4458 277° West 427 491 38,000  Level Memphis Center
Thu 10:02:53 AM 35.0803 -90.5981 277° West 427 491 38,000  Level Memphis Center
Thu 10:03:53 AM 35.0944 -90.7428 276° West 422 486 38,000  Level Memphis Center
Thu 10:04:53 AM 35.1064 -90.8850 278° West 427 491 38,000  Level Memphis Center
Thu 10:05:53 AM 35.1225 -91.0247 276° West 422 486 38,000  Level Memphis Center
Thu 10:06:53 AM 35.1342 -91.1697 278° West 428 493 38,000  Level Memphis Center
Thu 10:07:53 AM 35.1497 -91.3094 275° West 423 487 38,000  Level Memphis Center
Thu 10:08:53 AM 35.1592 -91.4492 276° West 423 487 38,000  Level Memphis Center
Thu 10:09:53 AM 35.1703 -91.5864 276° West 423 487 38,000  Level Memphis Center
Thu 10:10:53 AM 35.1833 -91.7289 278° West 423 487 38,000  Level Memphis Center
Thu 10:11:53 AM 35.1986 -91.8664 276° West 423 487 38,000  Level Memphis Center
Thu 10:12:53 AM 35.2094 -92.0039 279° West 423 487 38,000  Level Memphis Center
Thu 10:13:53 AM 35.2283 -92.1442 282° West 423 487 38,000  Level Memphis Center
Thu 10:14:53 AM 35.2514 -92.2819 281° West 423 487 38,000  Level Memphis Center
Thu 10:15:53 AM 35.2742 -92.4197 281° West 423 487 38,000  Level Memphis Center
Thu 10:16:53 AM 35.2967 -92.5578 280° West 423 487 38,000  Level Memphis Center
Thu 10:17:53 AM 35.3172 -92.6956 282° West 418 481 38,000  Level Memphis Center
Thu 10:18:53 AM 35.3397 -92.8236 281° West 423 487 38,000  Level Memphis Center
Thu 10:19:53 AM 35.3619 -92.9617 280° West 431 496 38,000  Level Memphis Center
Thu 10:20:53 AM 35.3839 -93.1075 282° West 426 490 38,000  Level Memphis Center
Thu 10:21:53 AM 35.4078 -93.2483 280° West 426 490 38,000  Level Memphis Center
Thu 10:22:53 AM 35.4275 -93.3842 281° West 426 490 38,000  Level Memphis Center
Thu 10:23:53 AM 35.4492 -93.5225 281° West 415 478 38,000  Level Memphis Center
Thu 10:24:53 AM 35.4706 -93.6636 280° West 415 478 38,000  Level Memphis Center
Thu 10:25:53 AM 35.4897 -93.8019 282° West 415 478 38,000  Level Memphis Center
Thu 10:26:53 AM 35.5128 -93.9406 280° West 415 478 38,000  Level Memphis Center
Thu 10:27:53 AM 35.5317 -94.0792 280° West 415 478 38,000  Level Memphis Center
Thu 10:28:53 AM 35.5506 -94.2178 279° West 415 478 38,000  Level Memphis Center
Thu 10:29:53 AM 35.5689 -94.3592 281° West 415 478 38,000  Level Memphis Center
Thu 10:31:47 AM 35.6111 -94.6358 280° West 410 472 38,000  Level Fort Worth Center
Thu 10:32:47 AM 35.6308 -94.7731 280° West 415 478 38,000  Level Fort Worth Center
Thu 10:33:47 AM 35.6503 -94.9128 281° West 415 478 38,000  Level Fort Worth Center
Thu 10:34:47 AM 35.6719 -95.0528 278° West 415 478 38,000  Level Fort Worth Center
Thu 10:35:47 AM 35.6864 -95.1725 280° West 410 472 38,000  Level Fort Worth Center
Thu 10:36:47 AM 35.7056 -95.3100 280° West 410 472 38,000  Level Fort Worth Center
Thu 10:37:47 AM 35.7244 -95.4475 279° West 410 472 38,000  Level Fort Worth Center
Thu 10:38:48 AM 35.7447 -95.6014 280° West 410 472 38,000  Level Kansas City Center
Thu 10:39:48 AM 35.7622 -95.7244 279° West 410 472 38,000  Level Kansas City Center
Thu 10:40:48 AM 35.7797 -95.8606 279° West 410 472 38,000  Level Kansas City Center
Thu 10:41:48 AM 35.7969 -95.9964 280° West 410 472 38,000  Level Kansas City Center
Thu 10:42:48 AM 35.8158 -96.1350 279° West 410 472 38,000  Level Kansas City Center
Thu 10:43:48 AM 35.8328 -96.2711 280° West 410 472 38,000  Level Kansas City Center
Thu 10:44:48 AM 35.8533 -96.4178 279° West 410 472 38,000  Level Kansas City Center
Thu 10:45:48 AM 35.8700 -96.5539 278° West 410 472 38,000  Level Kansas City Center
Thu 10:46:48 AM 35.8864 -96.6903 280° West 410 472 38,000  Level Kansas City Center
Thu 10:47:48 AM 35.9047 -96.8242 278° West 410 472 38,000  Level Kansas City Center
Thu 10:48:48 AM 35.9206 -96.9606 278° West 410 472 38,000  Level Kansas City Center
Thu 10:49:48 AM 35.9367 -97.0944 279° West 405 466 38,000  Level Kansas City Center
Thu 10:50:48 AM 35.9544 -97.2311 278° West 405 466 38,000  Level Kansas City Center
Thu 10:51:48 AM 35.9700 -97.3650 279° West 405 466 38,000  Level Kansas City Center
Thu 10:52:48 AM 35.9842 -97.4758 278° West 410 472 38,000  Level Kansas City Center
Thu 10:53:48 AM 36.0011 -97.6228 278° West 410 472 38,000  Level Kansas City Center
Thu 10:54:48 AM 36.0164 -97.7597 277° West 410 472 38,000  Level Kansas City Center
Thu 10:55:48 AM 36.0311 -97.8989 279° West 410 472 38,000  Level Kansas City Center
Thu 10:56:48 AM 36.0481 -98.0333 276° West 410 472 38,000  Level Kansas City Center
Thu 10:57:48 AM 36.0589 -98.1647 278° West 410 472 38,000  Level Kansas City Center
Thu 10:58:48 AM 36.0753 -98.3017 278° West 410 472 38,000  Level Kansas City Center
Thu 10:59:48 AM 36.0917 -98.4389 278° West 410 472 38,000  Level Kansas City Center
Thu 11:00:48 AM 36.1061 -98.5731 277° West 410 472 38,000  Level Kansas City Center
Thu 11:01:48 AM 36.1200 -98.7103 279° West 404 465 38,000  Level Kansas City Center
Thu 11:02:48 AM 36.1361 -98.8422 278° West 404 465 38,000  Level Kansas City Center
Thu 11:03:48 AM 36.1519 -98.9794 278° West 404 465 38,000  Level Kansas City Center
Thu 11:04:48 AM 36.1678 -99.1142 277° West 404 465 38,000  Level Kansas City Center
Thu 11:05:48 AM 36.1808 -99.2539 276° West 409 471 38,000  Level Kansas City Center
Thu 11:06:48 AM 36.1922 -99.3883 277° West 409 471 38,000  Level Kansas City Center
Thu 11:07:48 AM 36.2053 -99.5231 276° West 409 471 38,000  Level Kansas City Center
Thu 11:08:48 AM 36.2164 -99.6553 277° West 409 471 38,000  Level Kansas City Center
Thu 11:09:48 AM 36.2292 -99.7900 278° West 409 471 38,000  Level Kansas City Center
Thu 11:10:48 AM 36.2439 -99.9275 277° West 404 465 38,000  Level Kansas City Center
Thu 11:11:48 AM 36.2567 -100.0622 277° West 404 465 38,000  Level Kansas City Center
Thu 11:12:48 AM 36.2692 -100.1944 276° West 409 471 38,000  Level Kansas City Center
Thu 11:13:48 AM 36.2811 -100.3319 277° West 409 471 38,000  Level Kansas City Center
Thu 11:14:48 AM 36.2933 -100.4644 277° West 409 471 38,000  Level Kansas City Center
Thu 11:15:48 AM 36.3075 -100.5994 277° West 404 465 38,000  Level Kansas City Center
Thu 11:16:48 AM 36.3228 -100.7450 275° West 397 457 38,000  Level Kansas City Center
Thu 11:18:28 AM 36.3383 -100.9689 276° West 383 441 38,000  Level Albuquerque Center
Thu 11:19:28 AM 36.3497 -101.1047 277° West 393 452 38,000  Level Albuquerque Center
Thu 11:20:28 AM 36.3628 -101.2378 275° West 399 459 38,000  Level Albuquerque Center
Thu 11:21:28 AM 36.3714 -101.3636 276° West 404 465 38,000  Level Albuquerque Center
Thu 11:22:28 AM 36.3831 -101.5150 278° West 404 465 38,000  Level Albuquerque Center
Thu 11:23:28 AM 36.3978 -101.6478 276° West 404 465 38,000  Level Albuquerque Center
Thu 11:24:28 AM 36.4083 -101.7839 275° West 404 465 38,000  Level Albuquerque Center
Thu 11:25:28 AM 36.4186 -101.9175 277° West 399 459 38,000  Level Albuquerque Center
Thu 11:26:28 AM 36.4308 -102.0508 274° West 399 459 38,000  Level Albuquerque Center
Thu 11:27:28 AM 36.4383 -102.1742 277° West 399 459 38,000  Level Albuquerque Center
Thu 11:28:28 AM 36.4503 -102.3053 274° West 399 459 38,000  Level Albuquerque Center
Thu 11:29:28 AM 36.4581 -102.4417 276° West 399 459 38,000  Level Albuquerque Center
Thu 11:30:28 AM 36.4697 -102.5753 275° West 399 459 38,000  Level Albuquerque Center
Thu 11:31:28 AM 36.4794 -102.7142 275° West 399 459 38,000  Level Albuquerque Center
Thu 11:32:28 AM 36.4889 -102.8531 277° West 404 465 38,000  Level Albuquerque Center
Thu 11:33:28 AM 36.5022 -102.9867 275° West 399 459 38,000  Level Albuquerque Center
Thu 11:34:28 AM 36.5136 -103.1358 273° West 404 465 38,000  Level Albuquerque Center
Thu 11:35:28 AM 36.5186 -103.2803 276° West 410 472 38,000  Level Albuquerque Center
Thu 11:36:28 AM 36.5297 -103.4219 275° West 410 472 38,000  Level Albuquerque Center
Thu 11:37:28 AM 36.5381 -103.5481 274° West 410 472 38,000  Level Albuquerque Center
Thu 11:38:28 AM 36.5467 -103.6900 275° West 403 464 38,000  Level Albuquerque Center
Thu 11:39:28 AM 36.5569 -103.8267 274° West 396 456 38,000  Level Albuquerque Center
Thu 11:40:28 AM 36.5650 -103.9633 275° West 404 465 38,000  Level Albuquerque Center
Thu 11:41:28 AM 36.5750 -104.1000 273° West 404 465 38,000  Level Albuquerque Center
Thu 11:42:28 AM 36.5811 -104.2522 275° West 404 465 38,000  Level Albuquerque Center
Thu 11:43:28 AM 36.5911 -104.3914 274° West 404 465 38,000  Level Albuquerque Center
Thu 11:44:28 AM 36.5986 -104.5283 274° West 404 465 38,000  Level Albuquerque Center
Thu 11:45:28 AM 36.6056 -104.6522 274° West 404 465 38,000  Level Albuquerque Center
Thu 11:46:28 AM 36.6131 -104.8022 274° West 404 465 38,000  Level Albuquerque Center
Thu 11:47:28 AM 36.6200 -104.9392 275° West 404 465 38,000  Level Albuquerque Center
Thu 11:48:28 AM 36.6289 -105.0786 275° West 404 465 38,000  Level Albuquerque Center
Thu 11:49:28 AM 36.6375 -105.2078 273° West 409 471 38,000  Level Albuquerque Center
Thu 11:51:39 AM 36.6506 -105.5317 274° West 420 483 38,000  Level Denver Center
Thu 11:52:39 AM 36.6578 -105.6636 273° West 427 491 38,000  Level Denver Center
Thu 11:53:39 AM 36.6631 -105.8058 275° West 422 486 38,000  Level Denver Center
Thu 11:54:39 AM 36.6742 -105.9531 273° West 422 486 38,000  Level Denver Center
Thu 11:55:39 AM 36.6789 -106.0900 273° West 422 486 38,000  Level Denver Center
Thu 11:56:39 AM 36.6856 -106.2350 273° West 417 480 38,000  Level Denver Center
Thu 11:57:39 AM 36.6919 -106.3825 259° West 424 488 38,000  Level Denver Center
Thu 11:58:39 AM 36.6692 -106.5272 262° West 413 475 38,000  Level Denver Center
Thu 11:59:39 AM 36.6522 -106.6694 262° West 418 481 38,000  Level Denver Center
Thu 12:00:39 PM 36.6372 -106.8039 261° West 426 490 38,000  Level Denver Center
Thu 12:01:39 PM 36.6181 -106.9561 262° West 431 496 38,000  Level Denver Center
Thu 12:02:39 PM 36.6006 -107.1033 261° West 431 496 38,000  Level Denver Center
Thu 12:03:39 PM 36.5831 -107.2478 262° West 426 490 38,000  Level Denver Center
Thu 12:04:39 PM 36.5675 -107.3794 261° West 431 496 38,000  Level Denver Center
Thu 12:05:39 PM 36.5472 -107.5392 261° West 431 496 38,000  Level Denver Center
Thu 12:06:39 PM 36.5292 -107.6808 262° West 426 490 38,000  Level Denver Center
Thu 12:07:39 PM 36.5131 -107.8147 261° West 426 490 38,000  Level Denver Center
Thu 12:08:39 PM 36.4947 -107.9564 261° West 426 490 38,000  Level Denver Center
Thu 12:09:39 PM 36.4736 -108.1183 261° West 432 497 38,000  Level Denver Center
Thu 12:10:39 PM 36.4547 -108.2650 260° West 432 497 38,000  Level Denver Center
Thu 12:11:39 PM 36.4358 -108.4011 262° West 432 497 38,000  Level Denver Center
Thu 12:12:39 PM 36.4164 -108.5631 261° West 437 503 38,000  Level Denver Center
Thu 12:13:39 PM 36.3969 -108.7094 260° West 437 503 38,000  Level Denver Center
Thu 12:14:39 PM 36.3775 -108.8453 260° West 442 509 38,000  Level Denver Center
Thu 12:15:39 PM 36.3556 -108.9942 260° West 447 514 38,000  Level Denver Center
Thu 12:16:39 PM 36.3331 -109.1556 260° West 447 514 38,000  Level Denver Center
Thu 12:17:39 PM 36.3128 -109.3014 259° West 447 514 38,000  Level Denver Center
Thu 12:18:39 PM 36.2928 -109.4344 260° West 447 514 38,000  Level Denver Center
Thu 12:19:39 PM 36.2697 -109.5956 260° West 437 503 38,000  Level Denver Center
Thu 12:20:39 PM 36.2489 -109.7414 260° West 437 503 38,000 -300 Level Denver Center
Thu 12:21:39 PM 36.2303 -109.8742 259° West 437 503 37,400 -750 Descending Denver Center
Thu 12:22:39 PM 36.2072 -110.0172 257° West 437 503 36,500 -700 Descending Denver Center
Thu 12:23:39 PM 36.1772 -110.1750 261° West 442 509 36,000 -500 Descending Denver Center
Thu 12:24:39 PM 36.1575 -110.3231 260° West 437 503 35,500 -750 Descending Denver Center
Thu 12:25:39 PM 36.1358 -110.4683 259° West 437 503 34,500 -1,000 Descending Denver Center
Thu 12:26:39 PM 36.1117 -110.6158 258° West 437 503 33,500 -1,050 Descending Denver Center
Thu 12:27:39 PM 36.0878 -110.7583 259° West 437 503 32,400 -1,050 Descending Denver Center
Thu 12:28:39 PM 36.0656 -110.8981 260° West 432 497 31,400 -950 Descending Denver Center
Thu 12:29:39 PM 36.0483 -111.0175 259° West 418 481 30,500 -700 Descending Denver Center
Thu 12:30:39 PM 36.0261 -111.1572 260° West 418 481 30,000 -152 Descending Denver Center
Thu 12:32:56 PM 35.9761 -111.4942 259° West 414 476 30,000  Level Los Angeles Center
Thu 12:33:56 PM 35.9542 -111.6314 259° West 414 476 30,000  Level Los Angeles Center
Thu 12:34:56 PM 35.9336 -111.7583 258° West 414 476 30,000  Level Los Angeles Center
Thu 12:35:56 PM 35.9094 -111.8956 259° West 414 476 30,000  Level Los Angeles Center
Thu 12:36:56 PM 35.8869 -112.0325 259° West 414 476 30,000  Level Los Angeles Center
Thu 12:37:56 PM 35.8644 -112.1722 259° West 414 476 30,000  Level Los Angeles Center
Thu 12:38:56 PM 35.8417 -112.3117 258° West 414 476 30,000  Level Los Angeles Center
Thu 12:39:56 PM 35.8167 -112.4511 258° West 414 476 30,000  Level Los Angeles Center
Thu 12:40:56 PM 35.7936 -112.5903 258° West 414 476 30,000  Level Los Angeles Center
Thu 12:41:56 PM 35.7686 -112.7322 258° West 414 476 30,000  Level Los Angeles Center
Thu 12:42:56 PM 35.7433 -112.8739 258° West 419 482 30,000  Level Los Angeles Center
Thu 12:43:56 PM 35.7158 -113.0286 259° West 419 482 30,000  Level Los Angeles Center
Thu 12:44:57 PM 35.6978 -113.1419 257° West 419 482 30,000 -750 Level Los Angeles Center
Thu 12:45:56 PM 35.6683 -113.3014 258° West 413 475 28,500 -1,765 Descending Los Angeles Center
Thu 12:46:56 PM 35.6461 -113.4300 260° West 406 467 26,500 -1,900 Descending Los Angeles Center
Thu 12:47:56 PM 35.6281 -113.5533 278° West 385 443 24,700 -1,800 Descending Los Angeles Center
Thu 12:48:56 PM 35.6408 -113.6703 280° West 360 414 22,900 -1,800 Descending Los Angeles Center
Thu 12:49:56 PM 35.6578 -113.7900 280° West 360 414 21,100 -1,800 Descending Los Angeles Center
Thu 12:50:56 PM 35.6744 -113.9072 280° West 360 414 19,300 -1,800 Descending Los Angeles Center
Thu 12:51:56 PM 35.6911 -114.0217 280° West 354 407 17,500 -1,800 Descending Los Angeles Center
Thu 12:52:56 PM 35.7075 -114.1314 281° West 343 395 15,700 -1,759 Descending Los Angeles Center
Thu 12:53:52 PM 35.7217 -114.2256 281° West 318 366 14,100 -1,714 Descending Los Angeles Center
Thu 12:54:41 PM 35.7356 -114.3175 299° West 308 354 12,700 -1,156 Descending Los Angeles Center
Thu 12:55:41 PM 35.7722 -114.3986 339° North 304 350 12,000 -347 Descending Los Angeles Center
Thu 12:56:42 PM 35.8542 -114.4378 332° Northwest 309 356 12,000 -622 Level Los Angeles Center
Thu 12:57:56 PM 35.9361 -114.4925 306° West 286 329 10,600 -1,164 Descending Los Angeles Center
Thu 12:58:56 PM 35.9831 -114.5736 306° West 286 329 9,400 -1,145 Descending Los Angeles Center
Thu 12:59:46 PM 36.0258 -114.6472 304° West 287 330 8,500 -718 Descending Los Angeles Center
Thu 01:00:53 PM 36.0706 -114.7286 274° West 251 289 8,000 -656 Descending Los Angeles Center
Thu 01:01:54 PM 36.0756 -114.8108 269° West 227 261 7,100 -1,041 Descending Los Angeles Center
Thu 01:02:54 PM 36.0744 -114.8881 268° West 206 237 5,900 -1,082 Descending Los Angeles Center
Thu 01:03:56 PM 36.0728 -114.9444 271° West 214 246 4,900 -1,070 Descending Los Angeles Center
Thu 01:05:03 PM 36.0736 -115.0319 271° West 185 213 3,600 -1,000 Descending Los Angeles Center
Thu 01:05:56 PM 36.0739 -115.0703 271° West 197 227 2,900 -796 Descending Los Angeles Center
Thu 01:06:56 PM 36.0744 -115.1192 271° West 171 197 2,100 -400 Descending Los Angeles Center
Thu 01:07:56 PM 36.0747 -115.1578 79° East 163 188 2,100  Level Los Angeles Center
Thu 01:08:56 PM 36.0767 -115.1450 270° West 70 81 2,100  Level Los Angeles Center
Thu 01:09:56 PM 36.0767 -115.1603 270° West 45 52 2,100  Level Los Angeles Center

Login

Don't have an account? Register now (free) for customized features, flight alerts, and more!